New Champion — V7GG2 — position and weather

sailwx.info

Track history (hours):
 
Tides and Currents Weather Stations Pressure Air Temp Water Temp Dewpoint Dewpoint Depression Visibility Wind Speed Wind Dir Waves Ship Positions

New Champion

Last reported at 2015-Jun-03 13:07 UTC. Time now 2015-Aug-02 00:16 UTC.
Position N 01°59' E 102°14'.
Warning: this ship's position is 59 days out of date.

Length 228 m; draft 11.4 m.

Type: Ship (hazmat cat A). MMSI: 537985031.

Date/timePositionNaut miles runAvg speedWind from/ knotsBaromVisibWave heightAir tempDewpointWater temp
2015-Jun-03 13:07N 01°59' E 102°14'7 8.6
2015-Jun-03 12:21N 01°56' E 102°20'7 9.0
2015-Jun-03 11:33N 01°53' E 102°26'10 9.6
2015-Jun-03 10:33N 01°49' E 102°35'1110.7
2015-Jun-03 09:31N 01°44' E 102°45'64 2.6
2015-Jun-02 08:33N 01°13' E 103°41'3 0.1
2015-May-31 07:30N 01°15' E 103°43'5 4.7
2015-May-31 06:33N 01°14' E 103°47'2 1.0
2015-May-31 04:30N 01°13' E 103°49'0 0.2
2015-May-31 03:06N 01°13' E 103°49'0 0.0
2015-May-31 02:18N 01°13' E 103°49'0 0.0
2015-May-31 01:30N 01°13' E 103°49'0 0.1
2015-May-31 00:24N 01°13' E 103°49'0 0.0
2015-May-30 23:33N 01°13' E 103°49'0 0.2
2015-May-30 22:30N 01°13' E 103°49'0 0.1
2015-May-30 21:33N 01°13' E 103°49'0 0.0
2015-May-30 20:33N 01°13' E 103°49'0 0.0
2015-May-30 19:24N 01°13' E 103°49'0 0.0
2015-May-30 18:24N 01°13' E 103°49'0 0.0
2015-May-30 17:30N 01°13' E 103°49'0 0.0
2015-May-30 14:30N 01°13' E 103°49'0 0.1
2015-May-30 10:24N 01°13' E 103°49'0 0.0
2015-May-30 09:27N 01°13' E 103°49'0 0.0
2015-May-30 08:33N 01°13' E 103°49'0 0.0
2015-May-30 07:27N 01°13' E 103°49'0 0.1
2015-May-30 05:13N 01°13' E 103°49'0 0.1
2015-May-30 04:28N 01°13' E 103°49'1 1.4
2015-May-30 03:33N 01°13' E 103°48'8510.3
2015-May-29 19:20N 01°46' E 102°30'1212.5
2015-May-29 18:22N 01°51' E 102°20'  
Track history (hours):
 
Tides and Currents Weather Stations Pressure Air Temp Water Temp Dewpoint Dewpoint Depression Visibility Wind Speed Wind Dir Waves Ship Positions

New Champion

Last reported at 2015-Jun-03 13:07 UTC. Time now 2015-Aug-02 00:16 UTC.
Position N 01°59' E 102°14'.
Warning: this ship's position is 59 days out of date.

Length 228 m; draft 11.4 m.

Type: Ship (hazmat cat A). MMSI: 537985031.

Date/timePositionNaut miles runAvg speedWind from/ knotsBaromVisibWave heightAir tempDewpointWater temp
2015-Jun-03 13:07N 01°59' E 102°14'7 8.6
2015-Jun-03 12:21N 01°56' E 102°20'7 9.0
2015-Jun-03 11:33N 01°53' E 102°26'10 9.6
2015-Jun-03 10:33N 01°49' E 102°35'1110.7
2015-Jun-03 09:31N 01°44' E 102°45'64 2.6
2015-Jun-02 08:33N 01°13' E 103°41'3 0.1
2015-May-31 07:30N 01°15' E 103°43'5 4.7
2015-May-31 06:33N 01°14' E 103°47'2 1.0
2015-May-31 04:30N 01°13' E 103°49'0 0.2
2015-May-31 03:06N 01°13' E 103°49'0 0.0
2015-May-31 02:18N 01°13' E 103°49'0 0.0
2015-May-31 01:30N 01°13' E 103°49'0 0.1
2015-May-31 00:24N 01°13' E 103°49'0 0.0
2015-May-30 23:33N 01°13' E 103°49'0 0.2
2015-May-30 22:30N 01°13' E 103°49'0 0.1
2015-May-30 21:33N 01°13' E 103°49'0 0.0
2015-May-30 20:33N 01°13' E 103°49'0 0.0
2015-May-30 19:24N 01°13' E 103°49'0 0.0
2015-May-30 18:24N 01°13' E 103°49'0 0.0
2015-May-30 17:30N 01°13' E 103°49'0 0.0
2015-May-30 14:30N 01°13' E 103°49'0 0.1
2015-May-30 10:24N 01°13' E 103°49'0 0.0
2015-May-30 09:27N 01°13' E 103°49'0 0.0
2015-May-30 08:33N 01°13' E 103°49'0 0.0
2015-May-30 07:27N 01°13' E 103°49'0 0.1
2015-May-30 05:13N 01°13' E 103°49'0 0.1
2015-May-30 04:28N 01°13' E 103°49'1 1.4
2015-May-30 03:33N 01°13' E 103°48'8510.3
2015-May-29 19:20N 01°46' E 102°30'1212.5
2015-May-29 18:22N 01°51' E 102°20'  

Dump ship's entire track history